Time;durP1;ratioP1;P1;durP2;ratioP2;P2;SDS_P1;SDS_P2;PMS_P1;PMS_P2;Temp;Humidity;BMP_temperature;BMP_pressure;BME280_temperature;BME280_humidity;BME280_pressure;Samples;Min_cycle;Max_cycle;Signal;HPM_P1;HPM_P2
2022/11/16 00:01:25;;;;;;;1.83;1.40;;;;;;;-0.51;97.05;101377.75;10592109;28;20051;-82
2022/11/16 00:06:28;;;;;;;1.00;0.73;;;;;;;-0.54;97.00;101394.28;10583822;28;20047;-82
2022/11/16 00:11:30;;;;;;;0.60;0.60;;;;;;;-0.58;97.10;101375.97;10605095;28;20058;-82
2022/11/16 00:16:33;;;;;;;0.65;0.50;;;;;;;-0.61;96.61;101378.03;10597533;28;20038;-82
2022/11/16 00:21:35;;;;;;;0.32;0.32;;;;;;;-0.65;96.78;101382.13;10609884;28;20047;-82
2022/11/16 00:26:37;;;;;;;1.02;0.85;;;;;;;-0.68;96.81;101377.13;10609894;28;20052;-81
2022/11/16 00:31:40;;;;;;;1.65;1.08;;;;;;;-0.71;96.44;101382.88;10608124;27;20035;-82
2022/11/16 00:36:42;;;;;;;1.85;0.80;;;;;;;-0.75;96.33;101388.84;10631158;27;20047;-83
2022/11/16 00:41:45;;;;;;;1.40;0.80;;;;;;;-0.78;96.87;101387.38;10570249;28;20333;-82
2022/11/16 00:46:47;;;;;;;0.82;0.60;;;;;;;-0.82;96.76;101387.94;10600357;28;20473;-82
2022/11/16 00:51:49;;;;;;;0.68;0.60;;;;;;;-0.86;97.33;101383.94;10592596;28;20387;-82
2022/11/16 00:56:52;;;;;;;1.48;0.70;;;;;;;-0.87;97.14;101388.47;10574118;28;20048;-83
2022/11/16 01:01:54;;;;;;;0.60;0.60;;;;;;;-0.89;97.08;101392.38;10573851;28;20044;-81
2022/11/16 01:06:57;;;;;;;0.50;0.50;;;;;;;-0.94;97.04;101385.72;10628186;27;20039;-81
2022/11/16 01:12:09;;;;;;;2.42;0.52;;;;;;;-0.97;97.35;101383.41;10578538;28;20036;-82
2022/11/16 01:17:13;;;;;;;1.42;0.50;;;;;;;-1.00;96.55;101389.16;10584164;28;20265;-82
2022/11/16 01:22:16;;;;;;;0.28;0.28;;;;;;;-1.04;96.66;101382.47;10610748;28;20539;-82
2022/11/16 01:27:18;;;;;;;0.60;0.50;;;;;;;-1.05;95.87;101378.09;10597457;28;20048;-84
2022/11/16 01:32:21;;;;;;;1.08;0.75;;;;;;;-1.08;96.22;101370.38;10609559;28;20073;-83
2022/11/16 01:37:23;;;;;;;0.43;0.35;;;;;;;-1.10;95.96;101374.28;10609780;28;20419;-82
2022/11/16 01:42:28;;;;;;;0.57;0.40;;;;;;;-1.13;95.91;101375.50;10591364;28;20524;-82
2022/11/16 01:47:33;;;;;;;0.50;0.43;;;;;;;-1.16;95.65;101378.59;10574772;28;20168;-82
2022/11/16 01:52:40;;;;;;;1.75;0.60;;;;;;;-1.21;96.10;101381.00;10562939;28;20035;-82
2022/11/16 01:57:45;;;;;;;1.02;0.28;;;;;;;-1.23;95.50;101383.03;10609216;28;20421;-82
2022/11/16 02:02:48;;;;;;;0.98;0.50;;;;;;;-1.27;96.03;101381.72;10590066;28;20066;-81
2022/11/16 02:14:09;;;;;;;0.70;0.43;;;;;;;-1.34;95.26;101378.13;10577788;28;21846;-84
2022/11/16 02:19:56;;;;;;;0.50;0.30;;;;;;;-1.32;95.19;101384.16;10588539;28;20040;-82
2022/11/16 02:25:19;;;;;;;0.38;0.30;;;;;;;-1.31;95.08;101381.25;10576827;28;20493;-83
2022/11/16 02:30:22;;;;;;;0.75;0.50;;;;;;;-1.29;95.29;101378.38;10561019;27;20051;-83
2022/11/16 02:35:27;;;;;;;0.30;0.30;;;;;;;-1.27;94.86;101397.88;10593950;28;20047;-83
2022/11/16 02:40:32;;;;;;;0.90;0.40;;;;;;;-1.24;94.82;101397.50;10592901;28;20089;-83
2022/11/16 02:45:38;;;;;;;0.55;0.40;;;;;;;-1.21;94.36;101391.78;10595740;27;20050;-82
2022/11/16 02:50:42;;;;;;;0.55;0.50;;;;;;;-1.15;94.23;101395.56;10576704;28;20040;-84
2022/11/16 02:55:44;;;;;;;1.83;0.90;;;;;;;-1.16;94.85;101383.13;10570469;28;20310;-83
2022/11/16 03:01:06;;;;;;;0.50;0.50;;;;;;;-1.17;95.11;101381.47;10577494;28;20039;-83
2022/11/16 03:06:18;;;;;;;0.52;0.50;;;;;;;-1.21;95.21;101375.63;10579477;28;20545;-84
2022/11/16 03:16:47;;;;;;;0.65;0.50;;;;;;;-1.30;95.36;101377.56;10579128;28;20032;-82
2022/11/16 03:22:12;;;;;;;1.10;0.55;;;;;;;-1.31;95.02;101380.44;10599265;27;20044;-82
2022/11/16 03:27:43;;;;;;;0.82;0.55;;;;;;;-1.34;95.81;101391.56;10592274;28;20054;-82
2022/11/16 03:33:10;;;;;;;0.38;0.38;;;;;;;-1.34;95.72;101388.88;10590127;28;20036;-83
2022/11/16 03:38:14;;;;;;;0.60;0.60;;;;;;;-1.40;95.96;101382.38;10594449;28;20046;-82
2022/11/16 03:43:20;;;;;;;1.35;0.80;;;;;;;-1.42;96.24;101394.34;10608665;28;20035;-83
2022/11/16 03:48:23;;;;;;;1.10;0.70;;;;;;;-1.45;95.76;101397.41;10592614;28;20572;-83
2022/11/16 03:53:25;;;;;;;0.93;0.63;;;;;;;-1.49;96.37;101382.66;10579097;28;20044;-83
2022/11/16 03:58:28;;;;;;;0.80;0.80;;;;;;;-1.54;96.59;101375.97;10549978;28;20422;-84
2022/11/16 04:03:31;;;;;;;0.50;0.50;;;;;;;-1.55;96.34;101373.47;10550478;28;20044;-84
2022/11/16 04:24:39;;;;;;;0.47;0.47;;;;;;;-1.60;96.82;101392.81;10592455;28;20047;-84
2022/11/16 04:29:41;;;;;;;0.47;0.47;;;;;;;-1.59;96.45;101402.56;10518672;28;20041;-82
2022/11/16 04:40:05;;;;;;;0.93;0.70;;;;;;;-1.57;96.64;101392.47;10476362;28;20037;-81
2022/11/16 04:50:29;;;;;;;1.83;1.20;;;;;;;-1.58;96.28;101417.69;10516727;28;20040;-81
2022/11/16 04:55:34;;;;;;;2.38;1.00;;;;;;;-1.57;96.08;101416.69;10516575;28;20419;-81
2022/11/16 05:00:36;;;;;;;0.90;0.52;;;;;;;-1.63;95.82;101403.13;10492214;28;20455;-81
2022/11/16 05:05:39;;;;;;;0.75;0.63;;;;;;;-1.69;95.60;101395.78;10523043;28;20056;-81
2022/11/16 05:10:41;;;;;;;0.52;0.52;;;;;;;-1.69;95.68;101406.56;10544338;28;20044;-81
2022/11/16 05:15:45;;;;;;;0.40;0.40;;;;;;;-1.73;95.45;101398.03;10512551;28;20525;-82
2022/11/16 05:21:00;;;;;;;1.10;0.68;;;;;;;-1.70;95.59;101405.72;10504533;28;20048;-82
2022/11/16 05:26:05;;;;;;;3.45;0.80;;;;;;;-1.66;95.37;101406.19;10530548;28;20043;-82
2022/11/16 05:31:08;;;;;;;0.80;0.70;;;;;;;-1.65;95.14;101414.06;10580415;28;20036;-82
2022/11/16 05:36:11;;;;;;;1.08;0.70;;;;;;;-1.69;95.35;101420.84;10602205;28;20043;-82
2022/11/16 05:41:14;;;;;;;1.05;0.90;;;;;;;-1.72;95.17;101429.28;10568987;28;20044;-81
2022/11/16 05:46:17;;;;;;;0.68;0.60;;;;;;;-1.75;95.46;101431.47;10585915;28;20048;-81
2022/11/16 05:51:20;;;;;;;0.98;0.50;;;;;;;-1.82;95.15;101436.75;10602461;27;20032;-80
2022/11/16 05:56:23;;;;;;;0.98;0.70;;;;;;;-1.88;95.24;101424.88;10582366;28;20494;-81
2022/11/16 06:01:27;;;;;;;1.05;0.80;;;;;;;-1.97;95.01;101422.41;10600537;28;20081;-81
2022/11/16 06:06:30;;;;;;;0.73;0.65;;;;;;;-2.02;94.91;101438.25;10579132;28;20049;-81
2022/11/16 06:11:35;;;;;;;1.45;1.00;;;;;;;-2.13;94.79;101440.34;10607063;27;20039;-82
2022/11/16 06:16:38;;;;;;;0.50;0.50;;;;;;;-2.19;94.81;101445.59;10607187;28;20441;-82
2022/11/16 06:21:43;;;;;;;0.43;0.43;;;;;;;-2.25;94.89;101449.84;10581187;28;20039;-82
2022/11/16 06:26:51;;;;;;;2.05;1.00;;;;;;;-2.28;94.91;101452.88;10586196;28;20073;-82
2022/11/16 06:31:54;;;;;;;0.15;0.10;;;;;;;-2.31;94.99;101442.47;10634121;27;20054;-82
2022/11/16 06:36:58;;;;;;;0.60;0.60;;;;;;;-2.32;95.19;101445.34;10604668;27;20047;-82
2022/11/16 06:42:00;;;;;;;1.15;1.00;;;;;;;-2.27;95.19;101445.63;10594447;27;20413;-84
2022/11/16 06:47:03;;;;;;;0.75;0.75;;;;;;;-2.22;96.07;101448.66;10601311;28;20450;-85
2022/11/16 06:52:06;;;;;;;1.13;0.60;;;;;;;-2.21;95.57;101461.06;10588285;28;20039;-83
2022/11/16 06:57:09;;;;;;;0.70;0.70;;;;;;;-2.28;95.59;101460.94;10587862;27;20237;-83
2022/11/16 07:02:13;;;;;;;0.80;0.50;;;;;;;-2.25;94.88;101457.91;10551714;28;20528;-82
2022/11/16 07:07:16;;;;;;;1.00;0.90;;;;;;;-2.20;94.74;101450.16;10536851;28;20051;-82
2022/11/16 07:12:20;;;;;;;1.08;0.98;;;;;;;-2.20;94.82;101444.78;10592609;28;20457;-81
2022/11/16 07:17:24;;;;;;;1.67;0.85;;;;;;;-2.08;94.25;101447.91;10593030;28;20040;-83
2022/11/16 07:22:27;;;;;;;2.95;0.80;;;;;;;-1.95;94.41;101444.59;10607757;28;20043;-83
2022/11/16 07:27:30;;;;;;;1.55;1.00;;;;;;;-1.93;93.65;101445.25;10592731;28;20506;-83
2022/11/16 07:32:33;;;;;;;1.00;0.90;;;;;;;-1.98;92.62;101450.34;10592808;28;20048;-83
2022/11/16 07:37:54;;;;;;;1.20;1.08;;;;;;;-2.10;92.37;101451.75;10593854;28;20059;-83
2022/11/16 07:42:57;;;;;;;1.60;1.35;;;;;;;-2.10;92.30;101459.81;10601605;28;20046;-83
2022/11/16 07:48:09;;;;;;;2.42;1.80;;;;;;;-2.15;92.68;101463.03;10601062;28;20062;-82
2022/11/16 07:53:30;;;;;;;2.42;1.17;;;;;;;-2.09;92.83;101467.69;10619109;28;20051;-83
2022/11/16 07:58:33;;;;;;;2.50;1.60;;;;;;;-2.07;92.62;101460.31;10601418;28;20043;-83
2022/11/16 08:03:38;;;;;;;1.20;0.80;;;;;;;-2.08;92.26;101452.41;10584321;28;20414;-83
2022/11/16 08:08:41;;;;;;;1.15;0.88;;;;;;;-2.00;92.42;101455.88;10601163;28;20047;-83
2022/11/16 08:13:44;;;;;;;0.38;0.38;;;;;;;-1.90;92.14;101444.91;10583149;28;20545;-84
2022/11/16 08:18:47;;;;;;;1.73;0.73;;;;;;;-1.95;91.65;101433.81;10574626;28;20054;-86
2022/11/16 08:23:50;;;;;;;3.03;1.05;;;;;;;-1.89;91.19;101446.56;10599552;28;20418;-85
2022/11/16 08:28:55;;;;;;;1.83;1.30;;;;;;;-1.89;91.22;101449.28;10599572;28;20127;-85
2022/11/16 08:34:01;;;;;;;1.27;1.10;;;;;;;-1.88;90.81;101440.19;10615563;28;20055;-85
2022/11/16 08:39:05;;;;;;;1.25;1.15;;;;;;;-1.85;90.69;101450.56;10579078;28;20032;-82
2022/11/16 08:44:08;;;;;;;1.13;1.02;;;;;;;-1.93;90.30;101454.16;10618762;27;20425;-83
2022/11/16 08:49:13;;;;;;;1.80;1.30;;;;;;;-2.05;90.07;101458.28;10582057;28;20050;-79
2022/11/16 08:54:16;;;;;;;1.73;1.33;;;;;;;-2.04;89.97;101451.06;10584968;27;20047;-80
2022/11/16 08:59:19;;;;;;;2.47;1.40;;;;;;;-2.00;90.32;101445.13;10598785;28;20047;-79
2022/11/16 09:04:26;;;;;;;1.88;1.02;;;;;;;-1.85;90.16;101443.34;10615484;27;20048;-80
2022/11/16 09:09:28;;;;;;;2.05;1.40;;;;;;;-1.74;89.93;101439.38;10569078;28;20040;-80
2022/11/16 09:14:31;;;;;;;1.48;1.30;;;;;;;-1.70;90.08;101443.38;10601896;27;20032;-81
2022/11/16 09:19:33;;;;;;;2.05;1.40;;;;;;;-1.68;90.18;101449.44;10571991;28;20046;-81
2022/11/16 09:24:35;;;;;;;1.05;0.95;;;;;;;-1.66;89.49;101452.78;10577876;28;20040;-82
2022/11/16 09:29:38;;;;;;;1.45;1.00;;;;;;;-1.63;89.04;101449.72;10573368;28;20048;-82
2022/11/16 09:34:41;;;;;;;1.08;0.85;;;;;;;-1.66;88.32;101449.25;10572758;28;20051;-81
2022/11/16 09:39:44;;;;;;;2.83;1.40;;;;;;;-1.67;88.08;101440.34;10573847;28;20611;-81
2022/11/16 09:45:10;;;;;;;1.20;1.00;;;;;;;-1.58;87.96;101444.59;10572613;28;20040;-82
2022/11/16 09:50:26;;;;;;;1.90;1.25;;;;;;;-1.66;88.18;101428.56;10572103;28;20047;-82
2022/11/16 09:55:34;;;;;;;2.17;1.40;;;;;;;-1.65;88.36;101432.91;10573284;28;20044;-82
2022/11/16 10:00:36;;;;;;;2.42;1.55;;;;;;;-1.73;88.00;101435.69;10586518;28;20059;-82
2022/11/16 10:05:54;;;;;;;2.17;1.52;;;;;;;-1.89;88.05;101433.13;10572247;28;20063;-82
2022/11/16 10:11:05;;;;;;;1.98;1.55;;;;;;;-1.91;88.62;101443.19;10578624;28;20043;-82
2022/11/16 10:16:26;;;;;;;3.17;1.55;;;;;;;-1.84;88.39;101436.94;10613201;28;20056;-82
2022/11/16 10:21:36;;;;;;;1.58;1.35;;;;;;;-1.76;89.50;101444.09;10591726;28;20040;-82
2022/11/16 10:27:24;;;;;;;2.00;1.35;;;;;;;-1.85;88.87;101453.25;10624090;27;20082;-81
2022/11/16 10:32:31;;;;;;;1.73;1.20;;;;;;;-1.90;88.95;101451.13;10569396;28;20126;-82
2022/11/16 10:37:49;;;;;;;1.40;1.20;;;;;;;-1.93;88.99;101451.44;10570204;28;20065;-80
2022/11/16 10:43:03;;;;;;;1.88;1.50;;;;;;;-1.86;89.46;101456.97;10574532;28;20036;-80
2022/11/16 10:48:36;;;;;;;1.95;1.50;;;;;;;-1.75;89.42;101469.97;10569680;28;20526;-81
2022/11/16 10:53:40;;;;;;;2.60;2.10;;;;;;;-1.63;90.15;101465.03;10605505;28;20039;-81
2022/11/16 10:59:02;;;;;;;2.08;1.50;;;;;;;-1.65;89.94;101457.13;10612171;28;20497;-81
2022/11/16 11:04:27;;;;;;;1.58;1.27;;;;;;;-1.67;89.70;101451.09;10593856;28;20078;-81
2022/11/16 11:09:29;;;;;;;1.55;1.13;;;;;;;-1.74;89.46;101452.81;10611892;28;20047;-80
2022/11/16 11:14:35;;;;;;;0.98;0.75;;;;;;;-1.82;89.37;101456.44;10627287;27;20312;-81
2022/11/16 11:19:37;;;;;;;1.23;1.00;;;;;;;-1.95;88.98;101452.66;10627857;27;20490;-81
2022/11/16 11:24:46;;;;;;;1.52;1.10;;;;;;;-1.99;88.83;101448.66;10611395;28;20413;-81
2022/11/16 11:29:54;;;;;;;1.50;1.33;;;;;;;-1.93;88.78;101450.63;10627052;28;20050;-80
2022/11/16 11:34:59;;;;;;;1.83;1.27;;;;;;;-1.83;89.49;101460.13;10608285;28;20035;-78
2022/11/16 11:40:22;;;;;;;2.70;1.35;;;;;;;-1.93;88.97;101464.91;10604415;28;20047;-80
2022/11/16 11:45:30;;;;;;;1.40;1.10;;;;;;;-2.01;89.77;101456.91;10610793;28;20533;-78
2022/11/16 11:51:09;;;;;;;4.00;1.60;;;;;;;-1.98;89.89;101453.84;10605994;28;20032;-78
2022/11/16 11:56:13;;;;;;;5.00;1.70;;;;;;;-1.94;89.70;101446.25;10551674;28;20059;-78
2022/11/16 12:01:21;;;;;;;3.88;1.58;;;;;;;-1.98;89.71;101450.34;10557554;28;20512;-77
2022/11/16 12:06:35;;;;;;;2.45;1.40;;;;;;;-1.96;89.37;101440.22;10591371;28;20043;-78
2022/11/16 12:11:49;;;;;;;1.35;0.98;;;;;;;-2.01;89.52;101443.47;10597806;28;20497;-78
2022/11/16 12:17:16;;;;;;;1.60;1.05;;;;;;;-2.15;89.00;101437.00;10605910;28;20046;-80
2022/11/16 12:22:30;;;;;;;1.42;1.10;;;;;;;-2.22;88.78;101444.13;10597001;27;20043;-79
2022/11/16 12:28:12;;;;;;;1.23;1.13;;;;;;;-2.29;88.52;101440.44;10630410;27;20055;-77
2022/11/16 12:33:33;;;;;;;0.98;0.80;;;;;;;-2.28;89.19;101443.97;10594970;27;20494;-75
2022/11/16 12:38:35;;;;;;;4.45;1.42;;;;;;;-2.25;88.59;101449.00;10557457;28;20516;-75
2022/11/16 12:43:58;;;;;;;2.00;1.30;;;;;;;-2.26;88.26;101445.47;10605064;27;20035;-75
2022/11/16 12:49:03;;;;;;;2.42;1.50;;;;;;;-2.31;88.85;101447.84;10611403;27;20031;-76
2022/11/16 12:54:24;;;;;;;2.10;1.42;;;;;;;-2.44;89.01;101437.66;10578191;27;20046;-76
2022/11/16 12:59:32;;;;;;;1.85;1.20;;;;;;;-2.54;89.17;101431.69;10614307;27;20619;-76
2022/11/16 13:04:47;;;;;;;1.20;1.00;;;;;;;-2.60;89.59;101432.41;10611304;27;20039;-76
2022/11/16 13:09:56;;;;;;;2.20;1.40;;;;;;;-2.65;89.73;101450.88;10600604;27;20032;-77
2022/11/16 13:15:00;;;;;;;2.53;1.38;;;;;;;-2.64;89.83;101449.03;10576363;28;20035;-75
2022/11/16 13:20:21;;;;;;;3.15;1.60;;;;;;;-2.64;90.14;101444.50;10584573;28;20040;-75
2022/11/16 13:25:32;;;;;;;3.55;1.40;;;;;;;-2.53;90.23;101448.66;10614883;27;20050;-77
2022/11/16 13:31:01;;;;;;;2.95;1.58;;;;;;;-2.59;90.35;101446.69;10611579;28;20046;-75
2022/11/16 13:36:35;;;;;;;4.43;2.00;;;;;;;-2.54;90.16;101453.19;10597230;28;20047;-76
2022/11/16 13:41:40;;;;;;;4.15;1.83;;;;;;;-2.50;90.38;101445.59;10614719;27;20038;-76
2022/11/16 13:46:48;;;;;;;2.00;1.15;;;;;;;-2.49;89.99;101437.38;10620664;27;20043;-77
2022/11/16 13:52:02;;;;;;;2.30;1.43;;;;;;;-2.50;89.52;101424.13;10618278;28;20027;-76
2022/11/16 13:57:20;;;;;;;1.85;0.90;;;;;;;-2.46;89.19;101420.06;10595123;28;20489;-77
2022/11/16 14:02:40;;;;;;;1.75;1.35;;;;;;;-2.42;88.68;101424.09;10581522;27;20040;-77
2022/11/16 14:07:46;;;;;;;3.15;1.67;;;;;;;-2.39;88.70;101425.56;10578606;27;20042;-76
2022/11/16 14:12:53;;;;;;;3.85;1.40;;;;;;;-2.39;88.72;101414.81;10602613;27;20062;-77
2022/11/16 14:18:10;;;;;;;3.15;1.58;;;;;;;-2.34;88.47;101412.44;10615998;27;20036;-77
2022/11/16 14:23:25;;;;;;;1.95;1.40;;;;;;;-2.31;88.46;101415.59;10599042;27;20171;-77
2022/11/16 14:29:05;;;;;;;1.95;1.30;;;;;;;-2.31;88.17;101412.06;10590973;27;20058;-77
2022/11/16 14:34:15;;;;;;;3.60;1.83;;;;;;;-2.28;88.07;101415.22;10577384;28;20051;-78
2022/11/16 14:39:38;;;;;;;2.78;1.85;;;;;;;-2.31;87.75;101412.06;10553071;28;20052;-76
2022/11/16 14:44:42;;;;;;;2.70;2.08;;;;;;;-2.28;87.62;101409.03;10592286;28;20047;-78
2022/11/16 14:49:46;;;;;;;5.85;2.40;;;;;;;-2.26;87.61;101407.00;10594058;28;20552;-77
2022/11/16 14:54:54;;;;;;;3.58;2.10;;;;;;;-2.24;87.84;101405.00;10640795;27;20039;-79
2022/11/16 15:00:16;;;;;;;3.17;1.77;;;;;;;-2.22;87.39;101403.78;10589784;28;20051;-77
2022/11/16 15:05:26;;;;;;;3.00;1.80;;;;;;;-2.22;87.36;101409.16;10569810;28;20410;-77
2022/11/16 15:10:29;;;;;;;4.47;2.05;;;;;;;-2.19;87.32;101403.44;10573668;28;20056;-78
2022/11/16 15:15:31;;;;;;;5.05;2.20;;;;;;;-2.25;87.44;101397.94;10569108;28;20044;-77
2022/11/16 15:20:36;;;;;;;2.95;1.75;;;;;;;-2.16;87.25;101403.06;10551177;28;20044;-78
2022/11/16 15:25:42;;;;;;;5.90;2.65;;;;;;;-2.14;87.33;101401.03;10587713;28;20052;-76
2022/11/16 15:30:46;;;;;;;4.03;2.25;;;;;;;-2.19;87.63;101391.84;10568717;28;20399;-77
2022/11/16 15:35:49;;;;;;;4.95;2.47;;;;;;;-2.07;87.57;101376.97;10567703;28;20047;-77
2022/11/16 15:40:53;;;;;;;3.53;2.10;;;;;;;-2.12;88.04;101365.88;10550483;28;20059;-77
2022/11/16 15:45:56;;;;;;;4.63;1.85;;;;;;;-2.10;87.99;101363.03;10572784;28;20060;-76
2022/11/16 15:51:07;;;;;;;4.47;2.30;;;;;;;-2.14;88.16;101359.88;10567760;28;20063;-77
2022/11/16 15:56:24;;;;;;;4.45;1.85;;;;;;;-2.14;88.28;101355.31;10550461;28;20040;-78
2022/11/16 16:01:29;;;;;;;2.63;2.05;;;;;;;-2.06;88.20;101342.84;10575385;28;20040;-78
2022/11/16 16:06:51;;;;;;;3.60;2.00;;;;;;;-2.09;88.45;101338.63;10576277;28;20067;-78
2022/11/16 16:11:55;;;;;;;2.80;2.05;;;;;;;-2.10;88.42;101341.50;10576322;28;20039;-76
2022/11/16 16:16:58;;;;;;;5.55;2.25;;;;;;;-2.03;88.34;101337.09;10591688;28;20044;-78
2022/11/16 16:22:02;;;;;;;3.38;1.67;;;;;;;-2.00;88.14;101328.66;10576870;28;20032;-77
2022/11/16 16:27:10;;;;;;;3.88;1.88;;;;;;;-2.05;88.58;101344.50;10577595;28;20051;-77
2022/11/16 16:32:25;;;;;;;4.63;2.25;;;;;;;-2.10;88.89;101323.53;10576100;28;20517;-78
2022/11/16 16:37:29;;;;;;;4.38;2.15;;;;;;;-2.11;89.38;101329.91;10574080;28;20047;-77
2022/11/16 16:42:31;;;;;;;2.70;1.90;;;;;;;-2.17;89.21;101331.50;10576509;28;20044;-77
2022/11/16 16:47:34;;;;;;;3.63;1.90;;;;;;;-2.13;89.48;101342.72;10556740;28;20091;-77
2022/11/16 16:52:36;;;;;;;3.85;1.90;;;;;;;-2.02;89.90;101349.53;10578813;28;20040;-78
2022/11/16 16:57:38;;;;;;;2.50;1.98;;;;;;;-2.03;89.99;101326.34;10574495;28;20067;-78
2022/11/16 17:02:40;;;;;;;3.92;2.15;;;;;;;-2.08;89.74;101334.09;10576306;28;20039;-76
2022/11/16 17:07:42;;;;;;;3.10;1.58;;;;;;;-2.12;90.09;101326.41;10572633;28;20044;-78
2022/11/16 17:13:13;;;;;;;6.10;2.33;;;;;;;-2.07;90.39;101336.63;10572961;28;20079;-78
2022/11/16 17:18:16;;;;;;;2.72;1.42;;;;;;;-2.10;90.30;101334.28;10608806;28;20043;-78
2022/11/16 17:23:18;;;;;;;3.38;1.60;;;;;;;-2.08;90.32;101339.47;10610692;28;20047;-77
2022/11/16 17:28:20;;;;;;;5.18;2.08;;;;;;;-2.04;90.87;101346.19;10614978;27;20048;-78
2022/11/16 17:33:22;;;;;;;2.50;1.70;;;;;;;-1.95;91.11;101340.53;10587512;28;20513;-77
2022/11/16 17:38:25;;;;;;;2.40;1.70;;;;;;;-1.92;91.12;101344.72;10590816;28;20529;-77
2022/11/16 17:43:27;;;;;;;3.78;1.85;;;;;;;-1.90;91.19;101332.78;10622478;27;20387;-76
2022/11/16 17:48:30;;;;;;;3.28;2.15;;;;;;;-1.87;91.02;101331.56;10640350;27;20547;-76
2022/11/16 17:53:36;;;;;;;3.35;1.92;;;;;;;-1.80;91.07;101323.59;10601484;27;20039;-78
2022/11/16 17:58:39;;;;;;;2.95;1.70;;;;;;;-1.77;91.04;101321.38;10620665;27;20044;-76
2022/11/16 18:03:41;;;;;;;3.28;1.77;;;;;;;-1.76;91.13;101311.44;10609552;27;20035;-78
2022/11/16 18:08:44;;;;;;;2.70;1.67;;;;;;;-1.76;91.41;101298.81;10594090;28;20031;-78
2022/11/16 18:14:15;;;;;;;2.63;1.95;;;;;;;-1.82;91.57;101297.72;10601361;28;20040;-77
2022/11/16 18:19:19;;;;;;;2.70;1.60;;;;;;;-1.80;91.40;101305.59;10603422;28;20418;-78
2022/11/16 18:24:21;;;;;;;3.67;1.80;;;;;;;-1.76;91.66;101296.13;10599521;28;20043;-77
2022/11/16 18:29:23;;;;;;;3.83;2.15;;;;;;;-1.78;91.66;101303.56;10609145;28;20055;-77
2022/11/16 18:34:25;;;;;;;3.03;1.80;;;;;;;-1.76;92.17;101290.75;10590793;28;20074;-76
2022/11/16 18:39:29;;;;;;;4.13;2.13;;;;;;;-1.76;92.37;101290.75;10594064;28;20065;-78
2022/11/16 18:44:31;;;;;;;4.38;2.30;;;;;;;-1.71;92.64;101282.16;10594265;28;20054;-77
2022/11/16 18:49:59;;;;;;;5.10;2.20;;;;;;;-1.73;92.52;101285.03;10616978;28;20046;-78
2022/11/16 18:55:02;;;;;;;2.20;1.65;;;;;;;-1.74;92.93;101298.63;10615743;28;20042;-78
2022/11/16 19:00:05;;;;;;;4.82;2.55;;;;;;;-1.69;93.09;101283.63;10587880;28;20042;-76
2022/11/16 19:05:12;;;;;;;4.40;1.87;;;;;;;-1.66;93.72;101275.19;10601816;27;20052;-75
2022/11/16 19:10:15;;;;;;;4.47;2.05;;;;;;;-1.66;93.88;101277.03;10607547;28;20040;-76
2022/11/16 19:15:19;;;;;;;4.68;2.10;;;;;;;-1.65;94.26;101286.78;10611244;28;20048;-75
2022/11/16 19:20:21;;;;;;;4.85;2.28;;;;;;;-1.61;94.06;101275.44;10590221;28;20147;-76
2022/11/16 19:25:24;;;;;;;4.93;1.95;;;;;;;-1.63;94.62;101279.34;10615192;28;20042;-76
2022/11/16 19:30:26;;;;;;;3.95;2.35;;;;;;;-1.69;94.61;101267.47;10620602;28;20041;-76
2022/11/16 19:35:35;;;;;;;4.47;2.45;;;;;;;-1.68;95.25;101265.63;10601383;28;20449;-74
2022/11/16 19:40:38;;;;;;;5.53;2.30;;;;;;;-1.61;95.56;101256.63;10626358;28;20047;-77
2022/11/16 19:45:40;;;;;;;4.95;2.40;;;;;;;-1.48;96.23;101260.50;10609199;28;20051;-76
2022/11/16 19:50:42;;;;;;;5.47;2.80;;;;;;;-1.54;96.39;101256.72;10624706;28;20063;-76
2022/11/16 19:55:52;;;;;;;5.90;2.85;;;;;;;-1.59;96.57;101251.88;10620530;28;20052;-75
2022/11/16 20:01:04;;;;;;;8.52;3.50;;;;;;;-1.62;96.87;101256.81;10623378;28;20509;-75
2022/11/16 20:06:13;;;;;;;6.05;3.05;;;;;;;-1.56;97.23;101256.06;10624223;28;20050;-75
2022/11/16 20:11:19;;;;;;;7.38;3.50;;;;;;;-1.56;97.67;101253.38;10622035;28;20417;-75
2022/11/16 20:16:23;;;;;;;8.93;3.83;;;;;;;-1.48;97.90;101255.13;10603097;28;20530;-76
2022/11/16 20:21:27;;;;;;;8.27;3.58;;;;;;;-1.43;98.25;101250.84;10603941;28;20052;-76
2022/11/16 20:26:31;;;;;;;9.25;4.00;;;;;;;-1.44;98.07;101234.88;10605211;28;20063;-75
2022/11/16 20:31:33;;;;;;;8.10;4.05;;;;;;;-1.36;98.37;101232.09;10615971;28;20067;-75
2022/11/16 20:36:35;;;;;;;7.85;3.70;;;;;;;-1.28;98.81;101229.28;10608818;28;20051;-76
2022/11/16 20:41:38;;;;;;;8.63;3.80;;;;;;;-1.39;99.07;101233.31;10623782;28;20043;-74
2022/11/16 20:46:42;;;;;;;10.18;3.85;;;;;;;-1.38;99.43;101234.16;10612956;28;20043;-75
2022/11/16 20:51:47;;;;;;;9.20;4.82;;;;;;;-1.35;99.43;101236.47;10627564;27;20512;-75
2022/11/16 20:56:49;;;;;;;7.53;3.75;;;;;;;-1.30;99.27;101236.72;10616636;27;20643;-76
2022/11/16 21:01:51;;;;;;;9.95;4.22;;;;;;;-1.26;99.94;101235.31;10609250;28;20050;-74
2022/11/16 21:06:54;;;;;;;8.65;4.30;;;;;;;-1.22;100.00;101228.50;10606522;28;20059;-74
2022/11/16 21:17:18;;;;;;;7.15;3.55;;;;;;;-1.23;99.83;101206.16;10610459;28;20035;-75
2022/11/16 21:22:20;;;;;;;9.50;4.40;;;;;;;-1.22;99.83;101197.03;10588203;28;20059;-74
2022/11/16 21:27:23;;;;;;;7.90;3.95;;;;;;;-1.18;99.68;101204.75;10586394;28;20059;-75
2022/11/16 21:32:26;;;;;;;8.55;4.57;;;;;;;-1.19;100.00;101198.53;10584659;27;20044;-77
2022/11/16 21:37:28;;;;;;;8.73;4.53;;;;;;;-1.11;99.87;101202.97;10601758;28;20421;-73
2022/11/16 21:42:30;;;;;;;6.93;3.83;;;;;;;-1.15;100.00;101205.22;10610920;28;20052;-74
2022/11/16 21:47:32;;;;;;;7.22;3.30;;;;;;;-1.14;99.68;101206.88;10617933;28;20130;-74
2022/11/16 21:52:35;;;;;;;6.18;3.08;;;;;;;-1.10;99.67;101196.56;10602883;28;20039;-76
2022/11/16 21:57:38;;;;;;;6.47;3.45;;;;;;;-0.96;100.00;101196.50;10614167;27;20425;-76
2022/11/16 22:02:41;;;;;;;5.85;3.50;;;;;;;-0.84;99.53;101193.31;10584538;28;20061;-76
2022/11/16 22:07:43;;;;;;;6.43;3.40;;;;;;;-0.88;99.77;101186.59;10591637;28;20045;-74
2022/11/16 22:12:45;;;;;;;8.07;3.22;;;;;;;-0.92;99.73;101178.09;10608076;28;20040;-77
2022/11/16 22:17:47;;;;;;;5.43;3.28;;;;;;;-0.93;99.93;101185.34;10604634;28;20071;-76
2022/11/16 22:22:49;;;;;;;6.93;3.47;;;;;;;-0.96;99.48;101177.66;10602761;28;20056;-77
2022/11/16 22:27:52;;;;;;;4.43;2.88;;;;;;;-0.98;99.40;101176.19;10609738;28;20152;-77
2022/11/16 22:32:54;;;;;;;5.18;2.78;;;;;;;-0.91;99.41;101171.66;10608676;28;20059;-77
2022/11/16 22:37:58;;;;;;;6.32;3.00;;;;;;;-0.84;99.23;101174.44;10573247;28;20050;-75
2022/11/16 22:43:00;;;;;;;4.95;3.03;;;;;;;-0.81;99.46;101164.09;10603944;28;20040;-75
2022/11/16 22:48:03;;;;;;;5.30;3.28;;;;;;;-0.77;99.19;101157.31;10606117;27;20039;-76
2022/11/16 22:53:05;;;;;;;5.55;3.05;;;;;;;-0.80;98.60;101155.00;10607089;28;20052;-74
2022/11/16 22:58:07;;;;;;;4.00;2.55;;;;;;;-0.80;98.87;101148.78;10596778;28;20066;-73
2022/11/16 23:03:09;;;;;;;6.47;3.03;;;;;;;-0.77;99.00;101140.31;10606946;28;20058;-75
2022/11/16 23:08:11;;;;;;;6.00;3.60;;;;;;;-0.84;98.79;101140.25;10609512;27;20058;-75
2022/11/16 23:18:34;;;;;;;3.53;2.55;;;;;;;-0.81;99.00;101139.84;10573714;28;20395;-75
2022/11/16 23:28:58;;;;;;;6.90;2.92;;;;;;;-0.66;99.14;101137.91;10588314;28;20047;-74
2022/11/16 23:34:01;;;;;;;6.88;3.25;;;;;;;-0.65;99.10;101138.75;10585821;28;20040;-76
2022/11/16 23:39:03;;;;;;;3.30;1.85;;;;;;;-0.65;99.14;101127.97;10603629;28;20062;-74
2022/11/16 23:44:05;;;;;;;5.22;2.65;;;;;;;-0.66;98.80;101124.44;10603523;28;20040;-72
2022/11/16 23:49:07;;;;;;;2.50;1.58;;;;;;;-0.65;98.83;101134.19;10614536;28;20417;-73
2022/11/16 23:54:10;;;;;;;5.68;1.52;;;;;;;-0.63;98.38;101134.00;10609649;28;20058;-72
2022/11/16 23:59:12;;;;;;;1.80;1.00;;;;;;;-0.57;98.38;101135.06;10626800;27;20503;-72
